createdAt,value
2022-08-28T00:00:15.511Z,22.32
2022-08-28T00:02:42.934Z,22.27
2022-08-28T00:05:11.751Z,22.28
2022-08-28T00:07:38.836Z,22.24
2022-08-28T00:10:07.476Z,22.25
2022-08-28T00:12:35.628Z,22.25
2022-08-28T00:15:03.630Z,22.28
2022-08-28T00:17:30.287Z,22.29
2022-08-28T00:19:56.997Z,22.28
2022-08-28T00:22:23.724Z,22.29
2022-08-28T00:24:50.366Z,22.25
2022-08-28T00:27:40.056Z,22.27
2022-08-28T00:30:07.337Z,22.29
2022-08-28T00:32:35.627Z,22.26
2022-08-28T00:35:03.010Z,22.28
2022-08-28T00:37:29.692Z,22.25
2022-08-28T00:39:56.407Z,22.28
2022-08-28T00:42:23.065Z,22.27
2022-08-28T00:44:49.722Z,22.31
2022-08-28T00:47:16.402Z,22.31
2022-08-28T00:49:49.861Z,22.31
2022-08-28T00:52:17.364Z,22.26
2022-08-28T00:54:59.058Z,22.27
2022-08-28T00:57:32.355Z,22.23
2022-08-28T00:59:59.103Z,22.23
2022-08-28T01:02:26.664Z,22.18
2022-08-28T01:04:53.845Z,22.19
2022-08-28T01:07:23.281Z,22.18
2022-08-28T01:09:53.505Z,22.18
2022-08-28T01:12:25.039Z,22.18
2022-08-28T01:14:53.679Z,22.18
2022-08-28T01:17:23.683Z,22.18
2022-08-28T01:19:58.351Z,22.16
2022-08-28T01:22:33.646Z,22.16
2022-08-28T01:25:01.171Z,22.13
2022-08-28T01:27:28.258Z,22.12
2022-08-28T01:29:55.358Z,22.11
2022-08-28T01:32:40.931Z,22.11
2022-08-28T01:35:11.531Z,22.08
2022-08-28T01:37:38.636Z,22.09
2022-08-28T01:40:06.783Z,22.06
2022-08-28T01:42:39.313Z,22.09
2022-08-28T01:45:08.107Z,22.12
2022-08-28T01:47:34.733Z,22.09
2022-08-28T01:50:01.543Z,22.06
2022-08-28T01:52:29.007Z,22.06
2022-08-28T01:54:55.862Z,22.01
2022-08-28T01:57:24.752Z,22.03
2022-08-28T01:59:51.830Z,22.00
2022-08-28T02:02:18.640Z,21.96
2022-08-28T02:04:48.063Z,21.92
2022-08-28T02:07:16.925Z,21.92
2022-08-28T02:09:43.735Z,21.92
2022-08-28T02:12:10.416Z,21.92
2022-08-28T02:14:38.695Z,21.92
2022-08-28T02:17:05.381Z,21.92
2022-08-28T02:19:32.271Z,21.91
2022-08-28T02:21:58.958Z,21.91
2022-08-28T02:24:25.678Z,21.90
2022-08-28T02:26:52.327Z,21.87
2022-08-28T02:29:19.001Z,21.83
2022-08-28T02:31:45.679Z,21.77
2022-08-28T02:34:12.302Z,21.82
2022-08-28T02:36:42.725Z,21.79
2022-08-28T02:39:09.803Z,21.82
2022-08-28T02:41:36.635Z,21.82
2022-08-28T02:44:03.778Z,21.76
2022-08-28T02:46:30.566Z,21.77
2022-08-28T02:48:57.278Z,21.77
2022-08-28T02:51:24.754Z,21.76
2022-08-28T02:53:52.250Z,21.74
2022-08-28T02:56:19.284Z,21.81
2022-08-28T02:58:45.967Z,21.83
2022-08-28T03:01:13.500Z,21.80
2022-08-28T03:03:41.635Z,21.84
2022-08-28T03:06:09.536Z,21.80
2022-08-28T03:08:36.409Z,21.81
2022-08-28T03:11:03.314Z,21.75
2022-08-28T03:13:30.680Z,21.74
2022-08-28T03:15:57.811Z,21.75
2022-08-28T03:18:25.653Z,21.73
2022-08-28T03:20:53.582Z,21.71
2022-08-28T03:23:29.143Z,21.72
2022-08-28T03:26:07.407Z,21.69
2022-08-28T03:28:39.123Z,21.67
2022-08-28T03:31:10.487Z,21.64
2022-08-28T03:33:37.475Z,21.60
2022-08-28T03:36:10.333Z,21.60
2022-08-28T03:38:37.004Z,21.61
2022-08-28T03:41:03.690Z,21.62
2022-08-28T03:43:30.461Z,21.65
2022-08-28T03:46:02.666Z,21.62
2022-08-28T03:48:34.882Z,21.61
2022-08-28T03:51:01.813Z,21.62
2022-08-28T03:53:29.747Z,21.63
2022-08-28T03:55:57.544Z,21.66
2022-08-28T03:58:24.402Z,21.64
2022-08-28T04:00:51.171Z,21.65
2022-08-28T04:03:18.281Z,21.65
2022-08-28T04:05:45.925Z,21.69
2022-08-28T04:08:16.004Z,21.71
2022-08-28T04:10:46.008Z,21.68
2022-08-28T04:13:13.697Z,21.71
2022-08-28T04:15:41.527Z,21.67
2022-08-28T04:18:09.113Z,21.64
2022-08-28T04:20:36.402Z,21.61
2022-08-28T04:23:04.072Z,21.55
2022-08-28T04:25:31.496Z,21.56
2022-08-28T04:27:58.262Z,21.52
2022-08-28T04:30:25.168Z,21.50
2022-08-28T04:32:51.823Z,21.46
2022-08-28T04:35:18.430Z,21.42
2022-08-28T04:37:45.074Z,21.49
2022-08-28T04:40:13.297Z,21.54
2022-08-28T04:42:40.425Z,21.51
2022-08-28T04:45:07.763Z,21.41
2022-08-28T04:47:38.876Z,21.44
2022-08-28T04:50:07.482Z,21.44
2022-08-28T04:52:34.448Z,21.38
2022-08-28T04:55:01.615Z,21.41
2022-08-28T04:57:28.335Z,21.38
2022-08-28T04:59:54.964Z,21.38
2022-08-28T05:02:21.695Z,21.38
2022-08-28T05:04:48.432Z,21.36
2022-08-28T05:07:15.085Z,21.38
2022-08-28T05:09:41.844Z,21.32
2022-08-28T05:12:08.569Z,21.32
2022-08-28T05:14:36.615Z,21.34
2022-08-28T05:17:03.290Z,21.35
2022-08-28T05:19:29.927Z,21.34
2022-08-28T05:21:56.725Z,21.38
2022-08-28T05:24:23.475Z,21.31
2022-08-28T05:26:50.220Z,21.32
2022-08-28T05:29:17.487Z,21.27
2022-08-28T05:31:44.559Z,21.27
2022-08-28T05:34:13.359Z,21.23
2022-08-28T05:36:40.255Z,21.30
2022-08-28T05:39:09.893Z,21.24
2022-08-28T05:41:37.360Z,21.22
2022-08-28T05:44:07.374Z,21.22
2022-08-28T05:46:36.527Z,21.21
2022-08-28T05:49:07.724Z,21.27
2022-08-28T05:51:37.141Z,21.29
2022-08-28T05:54:04.257Z,21.26
2022-08-28T05:56:34.614Z,21.14
2022-08-28T05:59:02.132Z,21.13
2022-08-28T06:01:33.794Z,21.07
2022-08-28T06:04:03.684Z,21.12
2022-08-28T06:06:34.246Z,21.13
2022-08-28T06:09:03.711Z,21.07
2022-08-28T06:11:31.270Z,21.07
2022-08-28T06:14:04.551Z,21.09
2022-08-28T06:16:32.536Z,21.05
2022-08-28T06:19:00.511Z,21.07
2022-08-28T06:21:27.752Z,21.07
2022-08-28T06:23:54.425Z,21.05
2022-08-28T06:26:21.045Z,21.03
2022-08-28T06:28:47.754Z,21.03
2022-08-28T06:31:24.529Z,21.02
2022-08-28T06:33:57.292Z,21.02
2022-08-28T06:36:27.565Z,21.04
2022-08-28T06:38:58.084Z,21.09
2022-08-28T06:41:25.687Z,21.06
2022-08-28T06:43:52.350Z,21.07
2022-08-28T06:46:19.060Z,21.07
2022-08-28T06:48:46.011Z,21.07
2022-08-28T06:51:12.984Z,21.07
2022-08-28T06:53:41.588Z,21.09
2022-08-28T06:56:25.441Z,21.03
2022-08-28T06:58:52.698Z,20.95
2022-08-28T07:01:31.743Z,20.91
2022-08-28T07:04:01.272Z,20.91
2022-08-28T07:06:34.668Z,20.96
2022-08-28T07:09:02.194Z,21.01
2022-08-28T07:11:31.451Z,21.02
2022-08-28T07:13:58.597Z,20.98
2022-08-28T07:16:28.402Z,20.95
2022-08-28T07:18:55.343Z,21.01
2022-08-28T07:21:22.141Z,21.00
2022-08-28T07:23:49.275Z,20.99
2022-08-28T07:26:22.824Z,20.95
2022-08-28T07:28:50.832Z,20.93
2022-08-28T07:31:26.157Z,20.89
2022-08-28T07:33:56.193Z,20.84
2022-08-28T07:36:28.778Z,20.87
2022-08-28T07:38:59.226Z,20.88
2022-08-28T07:41:30.693Z,20.89
2022-08-28T07:44:16.103Z,20.89
2022-08-28T07:46:43.434Z,20.85
2022-08-28T07:49:10.690Z,20.88
2022-08-28T07:51:37.823Z,20.91
2022-08-28T07:54:05.027Z,20.94
2022-08-28T07:56:31.748Z,20.88
2022-08-28T07:58:59.539Z,20.86
2022-08-28T08:01:27.763Z,20.86
2022-08-28T08:04:01.125Z,20.87
2022-08-28T08:06:34.109Z,20.83
2022-08-28T08:09:01.936Z,20.85
2022-08-28T08:11:32.278Z,20.92
2022-08-28T08:14:04.719Z,20.96
2022-08-28T08:16:34.968Z,20.94
2022-08-28T08:19:02.156Z,20.94
2022-08-28T08:21:30.421Z,20.99
2022-08-28T08:23:57.346Z,21.05
2022-08-28T08:26:26.298Z,21.04
2022-08-28T08:28:52.949Z,21.07
2022-08-28T08:31:33.181Z,21.10
2022-08-28T08:34:03.575Z,21.18
2022-08-28T08:36:32.323Z,21.17
2022-08-28T08:39:00.314Z,21.18
2022-08-28T08:41:47.924Z,21.17
2022-08-28T08:44:21.242Z,21.16
2022-08-28T08:47:16.219Z,21.20
2022-08-28T08:50:00.487Z,21.19
2022-08-28T08:52:45.685Z,21.24
2022-08-28T08:55:27.422Z,21.26
2022-08-28T08:58:32.382Z,21.26
2022-08-28T09:01:09.698Z,21.24
2022-08-28T09:04:15.828Z,21.27
2022-08-28T09:06:50.834Z,21.31
2022-08-28T09:09:20.621Z,21.30
2022-08-28T09:11:56.957Z,21.37
2022-08-28T09:14:33.000Z,21.41
2022-08-28T09:17:00.995Z,21.44
2022-08-28T09:19:27.716Z,21.53
2022-08-28T09:21:54.673Z,21.61
2022-08-28T09:24:32.325Z,21.61
2022-08-28T09:27:14.184Z,21.53
2022-08-28T09:29:46.371Z,21.50
2022-08-28T09:32:21.995Z,21.52
2022-08-28T09:35:19.259Z,21.54
2022-08-28T09:37:46.078Z,21.62
2022-08-28T09:40:52.117Z,21.73
2022-08-28T09:43:26.843Z,21.62
2022-08-28T09:45:53.472Z,21.69
2022-08-28T09:48:40.197Z,21.75
2022-08-28T09:51:08.037Z,21.74
2022-08-28T09:53:38.708Z,21.80
2022-08-28T09:56:18.522Z,21.81
2022-08-28T09:58:48.628Z,21.84
2022-08-28T10:01:34.015Z,21.82
2022-08-28T10:04:25.340Z,21.88
2022-08-28T10:07:10.406Z,21.91
2022-08-28T10:10:13.998Z,21.91
2022-08-28T10:12:54.138Z,21.97
2022-08-28T10:15:43.136Z,22.01
2022-08-28T10:18:34.780Z,21.93
2022-08-28T10:21:13.089Z,21.92
2022-08-28T10:24:09.697Z,21.93
2022-08-28T10:27:03.708Z,22.05
2022-08-28T10:29:49.545Z,22.09
2022-08-28T10:32:25.165Z,22.10
2022-08-28T10:34:52.921Z,22.15
2022-08-28T10:37:44.988Z,22.13
2022-08-28T10:40:21.157Z,21.99
2022-08-28T10:42:53.591Z,21.98
2022-08-28T10:45:24.008Z,22.15
2022-08-28T10:47:53.353Z,22.22
2022-08-28T10:50:27.262Z,22.25
2022-08-28T10:53:10.243Z,22.22
2022-08-28T10:55:54.009Z,22.27
2022-08-28T10:58:24.424Z,22.33
2022-08-28T11:00:57.643Z,22.41
2022-08-28T11:03:41.037Z,22.40
2022-08-28T11:06:20.623Z,22.37
2022-08-28T11:08:52.199Z,22.42
2022-08-28T11:11:49.214Z,22.40
2022-08-28T11:14:23.536Z,22.38
2022-08-28T11:16:50.534Z,22.32
2022-08-28T11:19:44.542Z,22.43
2022-08-28T11:22:23.384Z,22.49
2022-08-28T11:24:55.976Z,22.48
2022-08-28T11:27:33.780Z,22.54
2022-08-28T11:30:09.438Z,22.52
2022-08-28T11:32:59.454Z,22.60
2022-08-28T11:35:44.367Z,22.56
2022-08-28T11:38:11.904Z,22.51
2022-08-28T11:40:40.669Z,22.50
2022-08-28T11:43:16.961Z,22.47
2022-08-28T11:45:46.791Z,22.32
2022-08-28T11:48:23.403Z,22.29
2022-08-28T11:50:55.782Z,22.28
2022-08-28T11:53:33.269Z,22.33
2022-08-28T11:56:31.830Z,22.38
2022-08-28T11:59:13.771Z,22.36
2022-08-28T12:01:40.966Z,22.38
2022-08-28T12:04:08.631Z,22.32
2022-08-28T12:06:44.508Z,22.20
2022-08-28T12:09:13.555Z,22.24
2022-08-28T12:11:42.128Z,22.26
2022-08-28T12:14:33.328Z,22.22
2022-08-28T12:17:00.097Z,22.17
2022-08-28T12:19:36.521Z,22.18
2022-08-28T12:22:17.285Z,22.09
2022-08-28T12:24:51.277Z,22.07
2022-08-28T12:27:18.124Z,22.13
2022-08-28T12:29:54.767Z,22.21
2022-08-28T12:32:50.458Z,22.28
2022-08-28T12:35:24.340Z,22.35
2022-08-28T12:37:54.256Z,22.44
2022-08-28T12:40:21.103Z,22.57
2022-08-28T12:42:57.235Z,22.54
2022-08-28T12:45:36.275Z,22.50
2022-08-28T12:48:13.398Z,22.29
2022-08-28T12:50:40.106Z,22.36
2022-08-28T12:53:13.446Z,22.60
2022-08-28T12:55:40.844Z,22.72
2022-08-28T12:58:27.018Z,22.77
2022-08-28T13:00:57.500Z,22.77
2022-08-28T13:03:24.508Z,22.82
2022-08-28T13:06:07.628Z,22.80
2022-08-28T13:08:34.870Z,22.75
2022-08-28T13:11:01.657Z,22.58
2022-08-28T13:13:34.132Z,22.44
2022-08-28T13:16:09.022Z,22.41
2022-08-28T13:18:42.424Z,22.35
2022-08-28T13:21:15.153Z,22.38
2022-08-28T13:23:42.454Z,22.36
2022-08-28T13:26:10.906Z,22.27
2022-08-28T13:28:40.073Z,22.34
2022-08-28T13:31:07.176Z,22.35
2022-08-28T13:33:34.049Z,22.47
2022-08-28T13:36:19.944Z,22.50
2022-08-28T13:38:46.808Z,22.60
2022-08-28T13:41:13.525Z,22.48
2022-08-28T13:43:45.713Z,22.41
2022-08-28T13:46:13.021Z,22.48
2022-08-28T13:48:39.994Z,22.47
2022-08-28T13:51:10.795Z,22.36
2022-08-28T13:53:39.257Z,22.26
2022-08-28T13:56:06.566Z,22.19
2022-08-28T13:58:33.408Z,22.14
2022-08-28T14:01:00.432Z,22.08
2022-08-28T14:03:36.484Z,22.02
2022-08-28T14:06:14.540Z,22.02
2022-08-28T14:08:43.619Z,22.12
2022-08-28T14:11:12.679Z,22.16
2022-08-28T14:13:47.392Z,22.13
2022-08-28T14:16:23.724Z,22.33
2022-08-28T14:18:52.776Z,22.40
2022-08-28T14:21:19.731Z,22.39
2022-08-28T14:23:46.731Z,22.40
2022-08-28T14:26:13.407Z,22.28
2022-08-28T14:28:40.015Z,22.34
2022-08-28T14:31:10.008Z,22.28
2022-08-28T14:33:39.161Z,22.29
2022-08-28T14:36:08.420Z,22.19
2022-08-28T14:38:35.759Z,22.18
2022-08-28T14:41:02.923Z,22.36
2022-08-28T14:43:30.433Z,22.54
2022-08-28T14:45:57.211Z,22.51
2022-08-28T14:48:23.932Z,22.64
2022-08-28T14:50:50.665Z,22.70
2022-08-28T14:53:17.438Z,22.55
2022-08-28T14:55:49.798Z,22.50
2022-08-28T14:58:19.537Z,22.48
2022-08-28T15:00:49.529Z,22.70
2022-08-28T15:03:18.522Z,22.78
2022-08-28T15:05:45.165Z,22.86
2022-08-28T15:08:14.597Z,22.81
2022-08-28T15:10:42.327Z,22.81
2022-08-28T15:13:10.373Z,22.75
2022-08-28T15:15:39.601Z,22.78
2022-08-28T15:18:07.390Z,22.82
2022-08-28T15:20:40.608Z,22.92
2022-08-28T15:23:07.496Z,23.11
2022-08-28T15:25:34.147Z,23.13
2022-08-28T15:28:00.833Z,22.97
2022-08-28T15:30:27.533Z,22.82
2022-08-28T15:32:54.317Z,22.68
2022-08-28T15:35:21.005Z,22.63
2022-08-28T15:37:47.903Z,22.61
2022-08-28T15:40:33.266Z,22.59
2022-08-28T15:43:00.232Z,22.55
2022-08-28T15:45:27.112Z,22.50
2022-08-28T15:47:54.272Z,22.40
2022-08-28T15:50:21.062Z,22.43
2022-08-28T15:52:48.032Z,22.44
2022-08-28T15:55:14.694Z,22.42
2022-08-28T15:57:41.453Z,22.44
2022-08-28T16:00:10.483Z,22.47
2022-08-28T16:02:37.555Z,22.43
2022-08-28T16:05:04.796Z,22.44
2022-08-28T16:07:31.495Z,22.44
2022-08-28T16:09:58.137Z,22.42
2022-08-28T16:12:25.566Z,22.43
2022-08-28T16:14:52.291Z,22.43
2022-08-28T16:17:19.080Z,22.40
2022-08-28T16:19:46.777Z,22.38
2022-08-28T16:22:16.117Z,22.37
2022-08-28T16:24:43.407Z,22.35
2022-08-28T16:27:13.208Z,22.32
2022-08-28T16:29:42.911Z,22.35
2022-08-28T16:32:09.658Z,22.31
2022-08-28T16:34:39.114Z,22.32
2022-08-28T16:37:06.190Z,22.31
2022-08-28T16:39:35.360Z,22.32
2022-08-28T16:42:02.263Z,22.32
2022-08-28T16:44:29.187Z,22.29
2022-08-28T16:46:56.320Z,22.28
2022-08-28T16:49:23.782Z,22.27
2022-08-28T16:51:50.641Z,22.26
2022-08-28T16:54:21.524Z,22.25
2022-08-28T16:56:48.227Z,22.27
2022-08-28T16:59:20.460Z,22.26
2022-08-28T17:01:53.030Z,22.26
2022-08-28T17:04:22.935Z,22.25
2022-08-28T17:06:49.895Z,22.26
2022-08-28T17:09:16.701Z,22.27
2022-08-28T17:11:52.038Z,22.26
2022-08-28T17:14:19.979Z,22.24
2022-08-28T17:16:46.765Z,22.23
2022-08-28T17:19:14.120Z,22.24
2022-08-28T17:21:59.351Z,22.23
2022-08-28T17:24:26.052Z,22.23
2022-08-28T17:26:52.725Z,22.20
2022-08-28T17:29:19.375Z,22.17
2022-08-28T17:31:46.276Z,22.08
2022-08-28T17:34:13.305Z,22.11
2022-08-28T17:36:42.349Z,22.11
2022-08-28T17:39:13.233Z,22.10
2022-08-28T17:41:39.986Z,22.13
2022-08-28T17:44:07.328Z,22.10
2022-08-28T17:46:37.699Z,22.07
2022-08-28T17:49:06.562Z,22.01
2022-08-28T17:51:43.677Z,21.98
2022-08-28T17:54:15.572Z,21.93
2022-08-28T17:56:42.506Z,21.89
2022-08-28T17:59:10.500Z,21.90
2022-08-28T18:01:38.657Z,21.87
2022-08-28T18:04:05.685Z,21.89
2022-08-28T18:06:32.580Z,21.91
2022-08-28T18:08:59.281Z,21.91
2022-08-28T18:11:26.258Z,21.93
2022-08-28T18:13:52.880Z,21.93
2022-08-28T18:16:20.119Z,21.92
2022-08-28T18:18:46.965Z,21.91
2022-08-28T18:21:14.298Z,21.87
2022-08-28T18:23:41.441Z,21.84
2022-08-28T18:26:08.636Z,21.86
2022-08-28T18:28:35.498Z,21.84
2022-08-28T18:31:02.766Z,21.82
2022-08-28T18:33:29.750Z,21.78
2022-08-28T18:35:56.888Z,21.79
2022-08-28T18:38:28.077Z,21.71
2022-08-28T18:40:55.466Z,21.63
2022-08-28T18:43:22.546Z,21.57
2022-08-28T18:45:49.540Z,21.48
2022-08-28T18:48:16.456Z,21.45
2022-08-28T18:50:46.269Z,21.43
2022-08-28T18:53:14.664Z,21.46
2022-08-28T18:55:41.362Z,21.52
2022-08-28T18:58:08.029Z,21.54
2022-08-28T19:00:38.236Z,21.51
2022-08-28T19:03:06.134Z,21.42
2022-08-28T19:05:33.700Z,21.37
2022-08-28T19:08:00.423Z,21.28
2022-08-28T19:10:34.146Z,21.26
2022-08-28T19:13:01.667Z,21.25
2022-08-28T19:15:29.061Z,21.25
2022-08-28T19:17:55.888Z,21.25
2022-08-28T19:20:22.642Z,21.21
2022-08-28T19:22:49.349Z,21.21
2022-08-28T19:25:27.907Z,21.26
2022-08-28T19:27:59.469Z,21.22
2022-08-28T19:30:28.084Z,21.25
2022-08-28T19:32:55.057Z,21.22
2022-08-28T19:35:24.337Z,21.27
2022-08-28T19:37:52.186Z,21.23
2022-08-28T19:40:20.646Z,21.27
2022-08-28T19:42:47.790Z,21.27
2022-08-28T19:45:15.161Z,21.23
2022-08-28T19:47:42.062Z,21.27
2022-08-28T19:50:10.422Z,21.21
2022-08-28T19:52:37.121Z,21.17
2022-08-28T19:55:05.710Z,21.13
2022-08-28T19:57:33.083Z,21.27
2022-08-28T20:00:00.214Z,21.30
2022-08-28T20:02:28.513Z,21.29
2022-08-28T20:04:55.556Z,21.27
2022-08-28T20:07:22.821Z,21.25
2022-08-28T20:09:49.472Z,21.18
2022-08-28T20:12:16.113Z,21.09
2022-08-28T20:14:44.807Z,21.00
2022-08-28T20:17:11.678Z,20.95
2022-08-28T20:19:38.755Z,20.94
2022-08-28T20:22:05.441Z,20.93
2022-08-28T20:24:32.106Z,20.99
2022-08-28T20:26:58.744Z,21.00
2022-08-28T20:29:25.529Z,21.00
2022-08-28T20:31:53.154Z,21.00
2022-08-28T20:34:20.535Z,20.94
2022-08-28T20:36:47.790Z,20.84
2022-08-28T20:39:15.515Z,20.82
2022-08-28T20:41:42.851Z,20.78
2022-08-28T20:44:12.861Z,20.80
2022-08-28T20:46:41.629Z,20.81
2022-08-28T20:49:12.619Z,20.80
2022-08-28T20:52:00.988Z,20.82
2022-08-28T20:54:30.262Z,20.79
2022-08-28T20:56:59.928Z,20.79
2022-08-28T20:59:29.683Z,20.76
2022-08-28T21:02:08.672Z,20.73
2022-08-28T21:04:36.803Z,20.71
2022-08-28T21:07:05.881Z,20.70
2022-08-28T21:09:33.475Z,20.74
2022-08-28T21:12:19.916Z,20.73
2022-08-28T21:14:51.565Z,20.70
2022-08-28T21:17:29.991Z,20.66
2022-08-28T21:20:09.265Z,20.58
2022-08-28T21:22:37.387Z,20.54
2022-08-28T21:25:09.230Z,20.49
2022-08-28T21:27:36.692Z,20.52
2022-08-28T21:30:04.436Z,20.49
2022-08-28T21:32:32.712Z,20.48
2022-08-28T21:35:00.713Z,20.50
2022-08-28T21:37:27.363Z,20.49
2022-08-28T21:39:56.519Z,20.54
2022-08-28T21:42:23.640Z,20.54
2022-08-28T21:44:51.946Z,20.55
2022-08-28T21:47:21.464Z,20.57
2022-08-28T21:49:50.133Z,20.57
2022-08-28T21:52:18.445Z,20.55
2022-08-28T21:54:45.258Z,20.56
2022-08-28T21:57:11.986Z,20.54
2022-08-28T21:59:39.005Z,20.51
2022-08-28T22:02:05.830Z,20.52
2022-08-28T22:04:32.653Z,20.50
2022-08-28T22:06:59.275Z,20.49
2022-08-28T22:09:25.902Z,20.49
2022-08-28T22:11:52.583Z,20.49
2022-08-28T22:14:19.243Z,20.55
2022-08-28T22:16:46.529Z,20.47
2022-08-28T22:19:13.212Z,20.49
2022-08-28T22:21:58.339Z,20.41
2022-08-28T22:24:24.982Z,20.36
2022-08-28T22:26:57.390Z,20.25
2022-08-28T22:29:24.682Z,20.20
2022-08-28T22:31:51.364Z,20.21
2022-08-28T22:34:18.254Z,20.21
2022-08-28T22:36:44.920Z,20.25
2022-08-28T22:39:11.551Z,20.23
2022-08-28T22:41:38.701Z,20.16
2022-08-28T22:44:05.457Z,20.20
2022-08-28T22:46:32.092Z,20.16
2022-08-28T22:48:59.298Z,20.11
2022-08-28T22:51:26.030Z,20.12
2022-08-28T22:53:52.737Z,20.11
2022-08-28T22:56:19.510Z,20.08
2022-08-28T22:58:46.413Z,20.10
2022-08-28T23:01:17.641Z,20.10
2022-08-28T23:03:45.065Z,20.12
2022-08-28T23:06:12.459Z,20.06
2022-08-28T23:08:39.104Z,20.04
2022-08-28T23:11:06.104Z,20.10
2022-08-28T23:13:33.044Z,20.07
2022-08-28T23:16:00.028Z,20.07
2022-08-28T23:18:26.719Z,20.06
2022-08-28T23:20:55.285Z,20.01
2022-08-28T23:23:24.046Z,20.00
2022-08-28T23:25:51.195Z,20.00
2022-08-28T23:28:18.831Z,19.98
2022-08-28T23:30:48.510Z,19.98
2022-08-28T23:33:24.056Z,20.05
2022-08-28T23:35:51.695Z,20.06
2022-08-28T23:38:18.567Z,20.06
2022-08-28T23:40:46.247Z,20.00
2022-08-28T23:43:12.874Z,19.87
2022-08-28T23:45:41.721Z,19.80
2022-08-28T23:48:08.681Z,19.80
2022-08-28T23:50:35.695Z,19.86
2022-08-28T23:53:04.105Z,19.91
2022-08-28T23:55:31.054Z,19.97
2022-08-28T23:58:00.172Z,20.03
